createdAt,value
2022-10-23T00:01:58.173Z,100299.81
2022-10-23T00:04:30.314Z,100295.53
2022-10-23T00:06:59.962Z,100293.13
2022-10-23T00:09:29.539Z,100293.31
2022-10-23T00:11:59.101Z,100290.75
2022-10-23T00:14:28.678Z,100292.53
2022-10-23T00:16:58.283Z,100295.28
2022-10-23T00:19:30.408Z,100296.28
2022-10-23T00:22:00.015Z,100292.88
2022-10-23T00:24:29.617Z,100292.97
2022-10-23T00:26:59.183Z,100290.38
2022-10-23T00:29:28.748Z,100296.72
2022-10-23T00:31:58.361Z,100294.06
2022-10-23T00:34:31.274Z,100288.91
2022-10-23T00:37:00.878Z,100293.38
2022-10-23T00:39:30.765Z,100289.06
2022-10-23T00:42:00.349Z,100298.06
2022-10-23T00:44:59.965Z,100302.63
2022-10-23T00:47:29.517Z,100302.75
2022-10-23T00:50:02.045Z,100303.81
2022-10-23T00:52:32.378Z,100298.53
2022-10-23T00:55:01.994Z,100292.31
2022-10-23T00:57:32.274Z,100282.69
2022-10-23T01:00:01.883Z,100285.34
2022-10-23T01:02:31.656Z,100278.56
2022-10-23T01:05:03.962Z,100275.06
2022-10-23T01:07:37.063Z,100279.50
2022-10-23T01:10:10.677Z,100280.47
2022-10-23T01:12:54.293Z,100276.84
2022-10-23T01:15:26.736Z,100275.91
2022-10-23T01:18:00.261Z,100263.25
2022-10-23T01:20:38.734Z,100271.22
2022-10-23T01:23:40.653Z,100281.84
2022-10-23T01:26:30.661Z,100278.25
2022-10-23T01:29:06.724Z,100275.53
2022-10-23T01:31:38.911Z,100276.38
2022-10-23T01:34:11.738Z,100277.28
2022-10-23T01:36:45.082Z,100271.13
2022-10-23T01:39:18.204Z,100265.06
2022-10-23T01:41:50.156Z,100258.88
2022-10-23T01:44:31.083Z,100246.38
2022-10-23T01:47:00.767Z,100243.56
2022-10-23T01:49:33.277Z,100229.34
2022-10-23T01:52:05.154Z,100235.41
2022-10-23T01:54:37.313Z,100236.97
2022-10-23T01:57:07.490Z,100231.47
2022-10-23T01:59:43.344Z,100234.91
2022-10-23T02:02:13.791Z,100223.34
2022-10-23T02:04:50.884Z,100227.75
2022-10-23T02:07:20.484Z,100217.09
2022-10-23T02:09:50.206Z,100209.13
2022-10-23T02:12:29.572Z,100205.44
2022-10-23T02:15:05.004Z,100197.41
2022-10-23T02:17:42.013Z,100208.03
2022-10-23T02:20:20.551Z,100204.31
2022-10-23T02:22:58.468Z,100203.28
2022-10-23T02:25:33.974Z,100199.78
2022-10-23T02:28:07.479Z,100201.31
2022-10-23T02:30:48.642Z,100200.31
2022-10-23T02:33:18.998Z,100204.69
2022-10-23T02:35:49.368Z,100194.06
2022-10-23T02:38:31.978Z,100176.28
2022-10-23T02:41:08.293Z,100180.59
2022-10-23T02:43:44.214Z,100167.38
2022-10-23T02:46:21.558Z,100164.81
2022-10-23T02:48:56.744Z,100160.44
2022-10-23T02:51:34.985Z,100153.41
2022-10-23T02:54:09.621Z,100150.84
2022-10-23T02:56:46.288Z,100156.25
2022-10-23T02:59:24.708Z,100150.13
2022-10-23T03:02:03.183Z,100149.38
2022-10-23T03:04:34.980Z,100151.34
2022-10-23T03:07:05.285Z,100161.13
2022-10-23T03:09:34.852Z,100144.25
2022-10-23T03:12:04.449Z,100135.16
2022-10-23T03:14:36.422Z,100142.88
2022-10-23T03:17:09.327Z,100138.06
2022-10-23T03:19:38.926Z,100147.47
2022-10-23T03:22:08.565Z,100140.09
2022-10-23T03:24:38.144Z,100132.72
2022-10-23T03:27:07.713Z,100119.16
2022-10-23T03:29:37.272Z,100110.91
2022-10-23T03:32:09.474Z,100100.09
2022-10-23T03:34:39.020Z,100095.63
2022-10-23T03:37:12.706Z,100099.03
2022-10-23T03:39:42.260Z,100100.66
2022-10-23T03:42:11.857Z,100091.66
2022-10-23T03:44:41.427Z,100100.41
2022-10-23T03:47:13.581Z,100087.97
2022-10-23T03:49:44.589Z,100089.59
2022-10-23T03:52:14.189Z,100097.47
2022-10-23T03:54:43.803Z,100093.88
2022-10-23T03:57:14.002Z,100095.59
2022-10-23T03:59:43.576Z,100104.41
2022-10-23T04:02:15.918Z,100113.22
2022-10-23T04:04:45.541Z,100107.06
2022-10-23T04:07:16.111Z,100103.47
2022-10-23T04:09:45.941Z,100110.56
2022-10-23T04:12:18.932Z,100112.19
2022-10-23T04:14:48.513Z,100107.75
2022-10-23T04:17:20.756Z,100102.34
2022-10-23T04:19:52.343Z,100098.72
2022-10-23T04:22:24.736Z,100100.41
2022-10-23T04:24:57.945Z,100099.47
2022-10-23T04:27:27.612Z,100096.91
2022-10-23T04:29:59.222Z,100105.94
2022-10-23T04:32:31.930Z,100102.53
2022-10-23T04:35:01.608Z,100107.91
2022-10-23T04:37:33.249Z,100102.78
2022-10-23T04:40:03.068Z,100095.84
2022-10-23T04:42:32.563Z,100098.50
2022-10-23T04:45:04.293Z,100087.97
2022-10-23T04:47:36.692Z,100087.97
2022-10-23T04:50:07.304Z,100087.00
2022-10-23T04:53:00.301Z,100088.78
2022-10-23T04:55:57.127Z,100088.78
2022-10-23T04:58:36.213Z,100070.13
2022-10-23T05:01:07.366Z,100064.72
2022-10-23T05:03:40.713Z,100064.59
2022-10-23T05:06:10.911Z,100070.59
2022-10-23T05:08:51.197Z,100065.19
2022-10-23T05:11:23.333Z,100066.81
2022-10-23T05:13:54.085Z,100064.91
2022-10-23T05:16:34.633Z,100063.75
2022-10-23T05:19:08.124Z,100057.50
2022-10-23T05:21:38.774Z,100058.63
2022-10-23T05:24:09.852Z,100064.16
2022-10-23T05:26:39.397Z,100049.34
2022-10-23T05:29:10.823Z,100037.91
2022-10-23T05:31:41.051Z,100037.81
2022-10-23T05:34:18.350Z,100039.44
2022-10-23T05:36:48.166Z,100038.41
2022-10-23T05:39:18.180Z,100026.72
2022-10-23T05:41:48.845Z,100022.16
2022-10-23T05:44:23.726Z,100027.38
2022-10-23T05:47:11.646Z,100028.44
2022-10-23T05:50:02.301Z,100023.97
2022-10-23T05:52:50.425Z,100015.13
2022-10-23T05:55:33.923Z,100012.47
2022-10-23T05:58:18.685Z,100014.16
2022-10-23T06:01:11.247Z,100013.13
2022-10-23T06:03:55.734Z,100012.28
2022-10-23T06:06:34.672Z,100008.75
2022-10-23T06:09:04.301Z,100008.84
2022-10-23T06:11:38.542Z,100008.72
2022-10-23T06:14:13.582Z,100003.41
2022-10-23T06:16:44.063Z,99998.72
2022-10-23T06:19:13.884Z,99992.25
2022-10-23T06:21:47.709Z,99986.84
2022-10-23T06:24:18.274Z,99989.31
2022-10-23T06:26:55.129Z,99997.94
2022-10-23T06:29:35.366Z,99989.81
2022-10-23T06:32:04.958Z,99995.75
2022-10-23T06:34:34.997Z,99991.00
2022-10-23T06:37:07.172Z,99979.88
2022-10-23T06:39:56.977Z,99988.31
2022-10-23T06:42:40.795Z,99981.84
2022-10-23T06:45:30.075Z,99982.41
2022-10-23T06:48:22.145Z,99984.88
2022-10-23T06:50:52.121Z,99973.09
2022-10-23T06:53:29.973Z,99978.00
2022-10-23T06:56:10.334Z,99973.22
2022-10-23T06:58:42.928Z,99964.09
2022-10-23T07:01:17.115Z,99960.25
2022-10-23T07:03:47.812Z,99964.44
2022-10-23T07:06:20.027Z,99964.00
2022-10-23T07:08:52.414Z,99970.84
2022-10-23T07:11:40.639Z,99964.34
2022-10-23T07:14:10.434Z,99979.28
2022-10-23T07:16:40.138Z,99964.06
2022-10-23T07:19:11.799Z,99969.28
2022-10-23T07:22:00.810Z,99967.34
2022-10-23T07:24:40.152Z,99970.91
2022-10-23T07:27:30.023Z,99975.16
2022-10-23T07:30:04.012Z,99964.28
2022-10-23T07:32:40.657Z,99976.47
2022-10-23T07:35:28.566Z,99974.97
2022-10-23T07:38:10.631Z,99969.72
2022-10-23T07:40:47.420Z,99968.13
2022-10-23T07:43:20.987Z,99964.59
2022-10-23T07:45:51.517Z,99949.81
2022-10-23T07:48:27.781Z,99955.19
2022-10-23T07:51:08.188Z,99948.75
2022-10-23T07:53:41.857Z,99946.06
2022-10-23T07:56:26.238Z,99943.94
2022-10-23T07:59:15.353Z,99937.34
2022-10-23T08:01:53.815Z,99938.56
2022-10-23T08:04:27.664Z,99930.00
2022-10-23T08:07:02.391Z,99922.44
2022-10-23T08:09:38.159Z,99926.59
2022-10-23T08:12:10.588Z,99923.81
2022-10-23T08:14:40.334Z,99923.34
2022-10-23T08:17:11.416Z,99926.59
2022-10-23T08:19:59.499Z,99929.69
2022-10-23T08:22:36.851Z,99929.94
2022-10-23T08:25:06.709Z,99937.09
2022-10-23T08:27:38.841Z,99926.78
2022-10-23T08:30:09.688Z,99928.56
2022-10-23T08:32:39.316Z,99924.88
2022-10-23T08:35:09.943Z,99932.69
2022-10-23T08:37:40.388Z,99934.13
2022-10-23T08:40:16.773Z,99938.44
2022-10-23T08:43:30.051Z,99936.44
2022-10-23T08:46:14.293Z,99944.38
2022-10-23T08:49:24.195Z,99935.59
2022-10-23T08:52:11.724Z,99927.88
2022-10-23T08:54:50.439Z,99933.66
2022-10-23T08:57:21.420Z,99915.28
2022-10-23T08:59:59.915Z,99917.16
2022-10-23T09:02:31.055Z,99921.22
2022-10-23T09:05:01.171Z,99913.13
2022-10-23T09:07:41.045Z,99909.25
2022-10-23T09:10:34.916Z,99903.69
2022-10-23T09:13:15.980Z,99898.81
2022-10-23T09:15:50.908Z,99894.19
2022-10-23T09:18:20.497Z,99887.78
2022-10-23T09:20:53.019Z,99871.72
2022-10-23T09:23:24.749Z,99870.19
2022-10-23T09:25:58.103Z,99870.38
2022-10-23T09:28:30.869Z,99869.59
2022-10-23T09:31:11.882Z,99865.53
2022-10-23T09:33:42.065Z,99863.75
2022-10-23T09:36:23.538Z,99850.59
2022-10-23T09:38:55.011Z,99846.84
2022-10-23T09:41:26.427Z,99851.72
2022-10-23T09:44:09.898Z,99850.63
2022-10-23T09:46:45.112Z,99838.81
2022-10-23T09:49:20.963Z,99841.81
2022-10-23T09:51:57.199Z,99829.88
2022-10-23T09:54:26.842Z,99839.66
2022-10-23T09:56:58.112Z,99838.75
2022-10-23T09:59:30.390Z,99843.03
2022-10-23T10:02:04.679Z,99832.69
2022-10-23T10:05:01.861Z,99830.78
2022-10-23T10:07:34.792Z,99833.81
2022-10-23T10:10:10.015Z,99839.56
2022-10-23T10:12:47.435Z,99826.56
2022-10-23T10:15:23.273Z,99819.09
2022-10-23T10:18:02.273Z,99816.44
2022-10-23T10:20:45.037Z,99823.31
2022-10-23T10:23:21.442Z,99821.22
2022-10-23T10:25:57.037Z,99815.09
2022-10-23T10:28:34.529Z,99798.97
2022-10-23T10:31:13.302Z,99804.88
2022-10-23T10:33:51.860Z,99798.25
2022-10-23T10:36:32.263Z,99795.41
2022-10-23T10:39:03.334Z,99809.88
2022-10-23T10:41:43.033Z,99808.16
2022-10-23T10:44:26.980Z,99807.22
2022-10-23T10:47:00.017Z,99803.09
2022-10-23T10:49:39.765Z,99773.13
2022-10-23T10:52:25.548Z,99782.28
2022-10-23T10:55:01.750Z,99781.72
2022-10-23T10:57:35.075Z,99761.66
2022-10-23T11:00:08.242Z,99756.41
2022-10-23T11:02:42.289Z,99748.75
2022-10-23T11:05:29.034Z,99746.81
2022-10-23T11:08:01.570Z,99738.19
2022-10-23T11:10:31.385Z,99735.94
2022-10-23T11:13:00.999Z,99716.53
2022-10-23T11:15:32.143Z,99724.59
2022-10-23T11:18:04.638Z,99731.38
2022-10-23T11:20:50.839Z,99723.16
2022-10-23T11:23:55.921Z,99723.31
2022-10-23T11:26:38.547Z,99733.38
2022-10-23T11:29:24.198Z,99731.22
2022-10-23T11:32:03.170Z,99723.63
2022-10-23T11:34:48.238Z,99731.25
2022-10-23T11:37:22.683Z,99732.22
2022-10-23T11:40:04.901Z,99706.06
2022-10-23T11:42:36.676Z,99701.53
2022-10-23T11:45:07.584Z,99689.22
2022-10-23T11:47:40.321Z,99688.03
2022-10-23T11:50:18.929Z,99706.78
2022-10-23T11:53:20.880Z,99711.00
2022-10-23T11:56:02.165Z,99700.38
2022-10-23T11:58:44.127Z,99685.09
2022-10-23T12:01:27.874Z,99676.06
2022-10-23T12:03:59.657Z,99678.38
2022-10-23T12:06:32.136Z,99682.09
2022-10-23T12:09:07.855Z,99692.44
2022-10-23T12:11:46.123Z,99677.94
2022-10-23T12:14:33.391Z,99682.19
2022-10-23T12:17:03.220Z,99682.06
2022-10-23T12:19:47.170Z,99676.56
2022-10-23T12:22:16.870Z,99658.16
2022-10-23T12:25:00.390Z,99657.03
2022-10-23T12:27:34.858Z,99647.69
2022-10-23T12:30:18.304Z,99642.19
2022-10-23T12:33:07.761Z,99642.19
2022-10-23T12:36:21.940Z,99650.53
2022-10-23T12:38:54.712Z,99641.75
2022-10-23T12:41:28.678Z,99639.63
2022-10-23T12:44:00.090Z,99641.59
2022-10-23T12:46:35.537Z,99623.25
2022-10-23T12:49:16.474Z,99624.78
2022-10-23T12:51:46.061Z,99623.38
2022-10-23T12:54:21.080Z,99625.38
2022-10-23T12:56:53.533Z,99617.63
2022-10-23T12:59:26.310Z,99626.81
2022-10-23T13:01:57.130Z,99634.72
2022-10-23T13:04:32.284Z,99620.00
2022-10-23T13:07:03.480Z,99611.94
2022-10-23T13:09:38.038Z,99607.41
2022-10-23T13:12:22.499Z,99621.00
2022-10-23T13:15:03.583Z,99598.25
2022-10-23T13:17:38.160Z,99597.69
2022-10-23T13:20:23.613Z,99590.91
2022-10-23T13:23:00.293Z,99592.03
2022-10-23T13:25:32.872Z,99588.66
2022-10-23T13:28:28.838Z,99575.38
2022-10-23T13:31:10.321Z,99559.69
2022-10-23T13:33:41.721Z,99556.47
2022-10-23T13:36:24.270Z,99562.09
2022-10-23T13:39:05.635Z,99557.03
2022-10-23T13:41:39.429Z,99554.94
2022-10-23T13:44:12.568Z,99545.47
2022-10-23T13:46:42.297Z,99537.56
2022-10-23T13:49:12.573Z,99536.69
2022-10-23T13:51:44.411Z,99537.81
2022-10-23T13:54:17.379Z,99529.91
2022-10-23T13:56:47.364Z,99528.34
2022-10-23T13:59:19.869Z,99515.22
2022-10-23T14:01:50.920Z,99520.00
2022-10-23T14:04:21.292Z,99513.94
2022-10-23T14:06:50.915Z,99504.50
2022-10-23T14:09:21.269Z,99511.81
2022-10-23T14:11:50.819Z,99507.72
2022-10-23T14:14:22.971Z,99520.59
2022-10-23T14:16:52.832Z,99524.25
2022-10-23T14:19:22.382Z,99515.38
2022-10-23T14:21:51.928Z,99505.78
2022-10-23T14:24:21.494Z,99495.88
2022-10-23T14:26:51.072Z,99506.91
2022-10-23T14:29:24.498Z,99490.09
2022-10-23T14:31:54.248Z,99489.53
2022-10-23T14:34:23.786Z,99490.81
2022-10-23T14:37:07.443Z,99487.56
2022-10-23T14:39:38.273Z,99488.69
2022-10-23T14:42:07.836Z,99474.59
2022-10-23T14:44:39.948Z,99478.38
2022-10-23T14:47:09.685Z,99474.16
2022-10-23T14:49:40.288Z,99472.59
2022-10-23T14:52:10.053Z,99476.53
2022-10-23T14:54:39.989Z,99466.09
2022-10-23T14:57:09.506Z,99481.47
2022-10-23T14:59:41.626Z,99468.34
2022-10-23T15:02:13.178Z,99465.09
2022-10-23T15:04:43.032Z,99475.22
2022-10-23T15:07:12.599Z,99466.28
2022-10-23T15:09:42.152Z,99485.97
2022-10-23T15:12:11.693Z,99495.31
2022-10-23T15:14:43.817Z,99474.00
2022-10-23T15:17:15.577Z,99484.09
2022-10-23T15:19:45.497Z,99490.97
2022-10-23T15:22:15.037Z,99484.28
2022-10-23T15:24:44.589Z,99502.94
2022-10-23T15:27:14.663Z,99514.75
2022-10-23T15:29:46.837Z,99530.75
2022-10-23T15:32:16.525Z,99536.63
2022-10-23T15:34:49.749Z,99536.09
2022-10-23T15:37:19.373Z,99531.72
2022-10-23T15:39:49.057Z,99532.69
2022-10-23T15:42:19.333Z,99544.81
2022-10-23T15:44:51.591Z,99535.41
2022-10-23T15:47:21.126Z,99528.84
2022-10-23T15:49:50.883Z,99523.97
2022-10-23T15:52:20.465Z,99510.13
2022-10-23T15:54:50.028Z,99516.66
2022-10-23T15:57:19.589Z,99512.53
2022-10-23T15:59:51.716Z,99508.97
2022-10-23T16:02:21.827Z,99515.25
2022-10-23T16:04:51.653Z,99511.94
2022-10-23T16:07:21.229Z,99519.56
2022-10-23T16:09:50.792Z,99515.81
2022-10-23T16:12:20.467Z,99539.03
2022-10-23T16:14:52.612Z,99548.00
2022-10-23T16:17:24.217Z,99562.47
2022-10-23T16:19:53.767Z,99553.00
2022-10-23T16:22:23.804Z,99546.09
2022-10-23T16:24:53.389Z,99542.81
2022-10-23T16:27:22.925Z,99546.97
2022-10-23T16:29:55.148Z,99538.72
2022-10-23T16:32:24.660Z,99533.41
2022-10-23T16:34:54.189Z,99538.78
2022-10-23T16:37:23.723Z,99541.31
2022-10-23T16:39:56.957Z,99557.22
2022-10-23T16:42:45.206Z,99570.56
2022-10-23T16:45:40.131Z,99572.22
2022-10-23T16:48:09.708Z,99572.72
2022-10-23T16:50:41.284Z,99597.22
2022-10-23T16:53:11.697Z,99621.47
2022-10-23T16:55:43.221Z,99644.78
2022-10-23T16:58:12.752Z,99647.53
2022-10-23T17:00:44.887Z,99605.09
2022-10-23T17:03:14.456Z,99599.38
2022-10-23T17:05:44.027Z,99603.72
2022-10-23T17:08:14.102Z,99592.91
2022-10-23T17:10:43.642Z,99545.72
2022-10-23T17:13:13.197Z,99447.75
2022-10-23T17:15:45.349Z,99431.50
2022-10-23T17:18:14.890Z,99464.06
2022-10-23T17:20:44.442Z,99489.25
2022-10-23T17:23:14.006Z,99505.50
2022-10-23T17:25:43.814Z,99521.59
2022-10-23T17:28:13.337Z,99514.44
2022-10-23T17:30:45.503Z,99492.16
2022-10-23T17:33:15.099Z,99474.34
2022-10-23T17:35:45.324Z,99470.84
2022-10-23T17:38:18.021Z,99498.31
2022-10-23T17:40:48.566Z,99494.81
2022-10-23T17:43:18.516Z,99486.94
2022-10-23T17:45:50.617Z,99517.22
2022-10-23T17:48:20.181Z,99536.81
2022-10-23T17:50:49.727Z,99536.81
2022-10-23T17:53:19.742Z,99532.47
2022-10-23T17:55:49.305Z,99520.81
2022-10-23T17:58:18.824Z,99511.97
2022-10-23T18:00:51.002Z,99499.50
2022-10-23T18:03:20.525Z,99497.81
2022-10-23T18:05:50.331Z,99521.81
2022-10-23T18:08:19.889Z,99503.97
2022-10-23T18:10:49.900Z,99499.50
2022-10-23T18:13:19.433Z,99493.25
2022-10-23T18:15:51.730Z,99491.41
2022-10-23T18:18:21.268Z,99486.00
2022-10-23T18:20:50.773Z,99487.66
2022-10-23T18:23:20.302Z,99499.06
2022-10-23T18:25:50.249Z,99479.56
2022-10-23T18:28:20.036Z,99475.09
2022-10-23T18:30:56.067Z,99473.38
2022-10-23T18:33:26.805Z,99469.00
2022-10-23T18:35:56.936Z,99470.97
2022-10-23T18:38:26.502Z,99466.59
2022-10-23T18:40:57.258Z,99478.19
2022-10-23T18:43:42.711Z,99472.97
2022-10-23T18:46:16.383Z,99490.03
2022-10-23T18:48:46.238Z,99479.59
2022-10-23T18:51:17.194Z,99467.38
2022-10-23T18:53:48.556Z,99466.72
2022-10-23T18:56:22.869Z,99472.06
2022-10-23T18:58:52.894Z,99475.72
2022-10-23T19:01:27.104Z,99472.31
2022-10-23T19:03:57.534Z,99466.97
2022-10-23T19:06:27.290Z,99455.47
2022-10-23T19:08:57.057Z,99461.41
2022-10-23T19:11:28.907Z,99471.84
2022-10-23T19:13:58.458Z,99472.56
2022-10-23T19:16:32.770Z,99454.78
2022-10-23T19:19:05.509Z,99455.63
2022-10-23T19:21:37.772Z,99452.00
2022-10-23T19:24:10.007Z,99452.72
2022-10-23T19:26:40.172Z,99447.28
2022-10-23T19:29:11.427Z,99447.09
2022-10-23T19:31:48.991Z,99438.19
2022-10-23T19:34:20.156Z,99431.53
2022-10-23T19:36:50.225Z,99436.72
2022-10-23T19:39:19.950Z,99444.44
2022-10-23T19:41:51.557Z,99446.94
2022-10-23T19:44:22.019Z,99447.50
2022-10-23T19:46:54.289Z,99447.97
2022-10-23T19:49:24.008Z,99459.06
2022-10-23T19:51:53.631Z,99466.53
2022-10-23T19:54:23.936Z,99469.44
2022-10-23T19:56:53.465Z,99464.09
2022-10-23T19:59:23.027Z,99467.41
2022-10-23T20:01:55.213Z,99458.09
2022-10-23T20:04:24.972Z,99460.53
2022-10-23T20:06:54.485Z,99461.28
2022-10-23T20:09:24.042Z,99460.19
2022-10-23T20:11:53.601Z,99456.69
2022-10-23T20:14:23.132Z,99453.91
2022-10-23T20:16:56.185Z,99457.31
2022-10-23T20:19:26.282Z,99466.78
2022-10-23T20:21:55.819Z,99483.38
2022-10-23T20:24:25.843Z,99490.16
2022-10-23T20:26:57.122Z,99486.81
2022-10-23T20:29:27.628Z,99494.88
2022-10-23T20:31:59.781Z,99508.28
2022-10-23T20:34:29.421Z,99521.38
2022-10-23T20:36:58.970Z,99529.19
2022-10-23T20:39:29.839Z,99522.19
2022-10-23T20:42:00.309Z,99545.72
2022-10-23T20:44:29.926Z,99561.50
2022-10-23T20:47:02.030Z,99573.63
2022-10-23T20:49:31.968Z,99577.88
2022-10-23T20:52:02.750Z,99573.28
2022-10-23T20:54:32.424Z,99589.19
2022-10-23T20:57:01.949Z,99587.34
2022-10-23T20:59:31.508Z,99567.84
2022-10-23T21:02:03.690Z,99583.84
2022-10-23T21:04:33.463Z,99564.22
2022-10-23T21:07:10.108Z,99567.84
2022-10-23T21:09:40.890Z,99577.75
2022-10-23T21:12:10.645Z,99561.03
2022-10-23T21:14:40.196Z,99568.28
2022-10-23T21:17:16.731Z,99568.53
2022-10-23T21:19:46.307Z,99559.78
2022-10-23T21:22:15.861Z,99562.81
2022-10-23T21:24:45.393Z,99560.50
2022-10-23T21:27:15.209Z,99561.91
2022-10-23T21:29:45.316Z,99562.84
2022-10-23T21:32:19.046Z,99560.03
2022-10-23T21:34:48.604Z,99558.13
2022-10-23T21:37:18.151Z,99570.22
2022-10-23T21:39:48.609Z,99563.53
2022-10-23T21:42:18.167Z,99558.63
2022-10-23T21:44:47.911Z,99566.16
2022-10-23T21:47:20.059Z,99567.22
2022-10-23T21:49:49.630Z,99559.34
2022-10-23T21:52:19.895Z,99559.53
2022-10-23T21:54:54.270Z,99567.66
2022-10-23T21:57:24.267Z,99568.59
2022-10-23T21:59:53.805Z,99576.81
2022-10-23T22:02:26.061Z,99574.28
2022-10-23T22:04:55.665Z,99569.06
2022-10-23T22:07:25.199Z,99576.28
2022-10-23T22:09:54.785Z,99569.38
2022-10-23T22:12:24.404Z,99566.00
2022-10-23T22:14:53.990Z,99563.22
2022-10-23T22:17:26.119Z,99560.53
2022-10-23T22:19:55.683Z,99554.28
2022-10-23T22:22:25.272Z,99558.63
2022-10-23T22:24:55.275Z,99564.69
2022-10-23T22:27:24.830Z,99565.44
2022-10-23T22:29:55.036Z,99567.88
2022-10-23T22:32:27.329Z,99548.38
2022-10-23T22:34:57.344Z,99559.88
2022-10-23T22:37:26.857Z,99558.19
2022-10-23T22:39:56.390Z,99553.09
2022-10-23T22:42:25.949Z,99546.16
2022-10-23T22:44:55.468Z,99541.91
2022-10-23T22:47:27.556Z,99552.56
2022-10-23T22:49:57.102Z,99557.16
2022-10-23T22:52:26.628Z,99542.13
2022-10-23T22:54:56.267Z,99537.88
2022-10-23T22:59:56.261Z,99553.22
2022-10-23T23:02:28.360Z,99562.19
2022-10-23T23:04:57.921Z,99547.88
2022-10-23T23:07:27.444Z,99551.31
2022-10-23T23:09:56.996Z,99554.09
2022-10-23T23:12:26.513Z,99551.53
2022-10-23T23:14:56.049Z,99547.88
2022-10-23T23:17:28.208Z,99559.31
2022-10-23T23:19:57.766Z,99557.34
2022-10-23T23:25:16.794Z,99566.16
2022-10-23T23:27:46.362Z,99570.31
2022-10-23T23:30:16.089Z,99563.56
2022-10-23T23:32:50.902Z,99566.31
2022-10-23T23:35:21.212Z,99559.19
2022-10-23T23:37:51.235Z,99561.09
2022-10-23T23:40:20.877Z,99554.38
2022-10-23T23:42:50.412Z,99554.13
2022-10-23T23:45:20.274Z,99556.56
2022-10-23T23:47:52.399Z,99550.91
2022-10-23T23:50:22.286Z,99543.63
2022-10-23T23:52:51.978Z,99543.72
2022-10-23T23:55:21.536Z,99543.34
2022-10-23T23:57:51.056Z,99540.41
